createdAt,value
2022-08-19T00:02:02.808Z,48.35
2022-08-19T00:04:33.862Z,48.28
2022-08-19T00:07:01.231Z,48.70
2022-08-19T00:09:29.400Z,49.31
2022-08-19T00:11:58.798Z,49.72
2022-08-19T00:14:27.043Z,50.14
2022-08-19T00:16:55.578Z,50.48
2022-08-19T00:19:23.631Z,50.29
2022-08-19T00:21:50.992Z,50.73
2022-08-19T00:24:17.981Z,50.79
2022-08-19T00:26:46.621Z,51.41
2022-08-19T00:29:16.716Z,51.40
2022-08-19T00:31:45.047Z,51.14
2022-08-19T00:34:13.119Z,51.19
2022-08-19T00:36:41.589Z,51.10
2022-08-19T00:39:08.930Z,51.68
2022-08-19T00:41:35.929Z,51.40
2022-08-19T00:44:10.566Z,51.38
2022-08-19T00:46:39.507Z,51.55
2022-08-19T00:49:26.993Z,50.96
2022-08-19T00:51:59.282Z,51.53
2022-08-19T00:54:31.182Z,51.05
2022-08-19T00:57:00.744Z,51.27
2022-08-19T01:00:00.752Z,51.01
2022-08-19T01:02:17.729Z,51.19
2022-08-19T01:04:44.648Z,51.39
2022-08-19T01:07:15.132Z,51.41
2022-08-19T01:09:46.546Z,51.03
2022-08-19T01:12:13.795Z,51.59
2022-08-19T01:14:41.358Z,51.19
2022-08-19T01:17:13.023Z,51.44
2022-08-19T01:19:43.772Z,51.65
2022-08-19T01:22:38.000Z,51.71
2022-08-19T01:25:08.874Z,52.43
2022-08-19T01:27:44.841Z,52.65
2022-08-19T01:30:25.183Z,52.37
2022-08-19T01:32:53.868Z,52.33
2022-08-19T01:35:22.198Z,52.22
2022-08-19T01:37:50.955Z,52.63
2022-08-19T01:40:20.426Z,52.53
2022-08-19T01:42:51.854Z,52.84
2022-08-19T01:45:20.027Z,52.77
2022-08-19T01:47:52.760Z,53.18
2022-08-19T01:50:34.037Z,53.10
2022-08-19T01:53:06.802Z,53.42
2022-08-19T01:55:40.619Z,53.16
2022-08-19T01:58:15.703Z,53.19
2022-08-19T02:00:43.401Z,53.40
2022-08-19T02:03:12.301Z,53.59
2022-08-19T02:05:40.629Z,53.57
2022-08-19T02:08:08.606Z,53.58
2022-08-19T02:10:43.737Z,53.88
2022-08-19T02:13:12.078Z,54.18
2022-08-19T02:15:58.958Z,53.72
2022-08-19T02:18:28.096Z,53.81
2022-08-19T02:20:55.067Z,53.71
2022-08-19T02:23:21.929Z,54.07
2022-08-19T02:25:49.818Z,54.49
2022-08-19T02:28:18.933Z,54.71
2022-08-19T02:30:48.390Z,54.82
2022-08-19T02:33:16.152Z,54.57
2022-08-19T02:35:45.579Z,54.77
2022-08-19T02:38:27.978Z,54.96
2022-08-19T02:41:01.560Z,54.80
2022-08-19T02:43:33.716Z,55.27
2022-08-19T02:46:01.875Z,55.18
2022-08-19T02:48:28.883Z,54.79
2022-08-19T02:50:58.507Z,55.33
2022-08-19T02:53:28.748Z,54.63
2022-08-19T02:55:55.923Z,55.07
2022-08-19T02:58:25.203Z,54.69
2022-08-19T03:00:56.810Z,54.75
2022-08-19T03:03:24.505Z,55.05
2022-08-19T03:06:03.594Z,55.41
2022-08-19T03:08:31.074Z,55.07
2022-08-19T03:10:57.902Z,55.21
2022-08-19T03:13:25.136Z,55.23
2022-08-19T03:15:52.073Z,55.75
2022-08-19T03:18:18.939Z,55.31
2022-08-19T03:20:48.608Z,55.46
2022-08-19T03:23:16.464Z,55.60
2022-08-19T03:25:46.555Z,55.45
2022-08-19T03:28:25.085Z,55.55
2022-08-19T03:31:01.508Z,55.30
2022-08-19T03:33:30.602Z,55.38
2022-08-19T03:36:03.098Z,55.27
2022-08-19T03:38:30.265Z,55.83
2022-08-19T03:40:57.105Z,55.92
2022-08-19T03:43:23.996Z,55.95
2022-08-19T03:46:00.228Z,56.19
2022-08-19T03:48:27.082Z,56.49
2022-08-19T03:50:53.906Z,56.70
2022-08-19T03:53:20.737Z,56.63
2022-08-19T03:55:47.549Z,56.61
2022-08-19T03:58:14.398Z,56.10
2022-08-19T04:00:44.186Z,56.34
2022-08-19T04:03:11.001Z,56.31
2022-08-19T04:05:38.966Z,56.25
2022-08-19T04:08:09.669Z,56.34
2022-08-19T04:10:41.725Z,56.15
2022-08-19T04:13:10.101Z,56.43
2022-08-19T04:15:42.457Z,55.91
2022-08-19T04:18:12.118Z,55.98
2022-08-19T04:20:47.193Z,55.50
2022-08-19T04:23:15.173Z,56.11
2022-08-19T04:25:44.325Z,55.72
2022-08-19T04:28:13.468Z,55.49
2022-08-19T04:30:46.034Z,55.67
2022-08-19T04:33:16.384Z,56.11
2022-08-19T04:35:48.188Z,55.44
2022-08-19T04:38:18.532Z,55.53
2022-08-19T04:41:06.341Z,55.41
2022-08-19T04:43:34.995Z,54.83
2022-08-19T04:46:38.161Z,54.62
2022-08-19T04:49:01.922Z,54.78
2022-08-19T04:51:37.948Z,54.48
2022-08-19T04:54:05.365Z,54.67
2022-08-19T04:56:32.346Z,54.65
2022-08-19T04:59:04.280Z,53.91
2022-08-19T05:01:33.952Z,54.16
2022-08-19T05:04:02.590Z,53.87
2022-08-19T05:06:29.920Z,54.15
2022-08-19T05:08:57.190Z,54.24
2022-08-19T05:11:30.609Z,54.08
2022-08-19T05:13:58.270Z,53.73
2022-08-19T05:16:27.679Z,53.80
2022-08-19T05:19:13.924Z,53.46
2022-08-19T05:22:01.304Z,53.62
2022-08-19T05:24:30.520Z,53.97
2022-08-19T05:26:58.355Z,54.19
2022-08-19T05:29:27.685Z,54.38
2022-08-19T05:32:06.167Z,54.06
2022-08-19T05:34:34.473Z,53.97
2022-08-19T05:37:03.190Z,53.85
2022-08-19T05:39:33.330Z,54.03
2022-08-19T05:42:04.642Z,53.61
2022-08-19T05:44:34.653Z,53.35
2022-08-19T05:47:03.613Z,53.01
2022-08-19T05:49:30.539Z,52.58
2022-08-19T05:51:57.371Z,52.70
2022-08-19T05:54:25.582Z,52.57
2022-08-19T05:56:53.984Z,52.77
2022-08-19T05:59:22.462Z,52.54
2022-08-19T06:01:55.310Z,52.50
2022-08-19T06:04:22.579Z,52.44
2022-08-19T06:06:52.701Z,52.64
2022-08-19T06:09:20.992Z,52.26
2022-08-19T06:11:56.213Z,51.64
2022-08-19T06:14:28.079Z,51.39
2022-08-19T06:16:55.396Z,51.01
2022-08-19T06:19:25.271Z,50.95
2022-08-19T06:21:54.080Z,50.30
2022-08-19T06:24:26.650Z,50.46
2022-08-19T06:26:58.009Z,49.85
2022-08-19T06:29:30.388Z,50.27
2022-08-19T06:31:59.449Z,49.87
2022-08-19T06:34:28.917Z,50.39
2022-08-19T06:36:58.598Z,49.75
2022-08-19T06:39:28.398Z,49.69
2022-08-19T06:42:00.041Z,49.21
2022-08-19T06:44:28.164Z,49.28
2022-08-19T06:46:57.371Z,49.48
2022-08-19T06:49:24.625Z,49.11
2022-08-19T06:51:52.388Z,48.91
2022-08-19T06:54:20.365Z,48.39
2022-08-19T06:56:48.266Z,47.84
2022-08-19T06:59:18.794Z,47.77
2022-08-19T07:01:51.336Z,47.57
2022-08-19T07:04:21.274Z,47.36
2022-08-19T07:06:55.133Z,47.71
2022-08-19T07:09:22.615Z,47.56
2022-08-19T07:11:53.336Z,47.13
2022-08-19T07:14:24.121Z,47.08
2022-08-19T07:16:52.982Z,46.56
2022-08-19T07:19:20.578Z,45.86
2022-08-19T07:21:49.423Z,45.36
2022-08-19T07:24:18.121Z,45.40
2022-08-19T07:26:45.654Z,45.80
2022-08-19T07:29:13.705Z,45.44
2022-08-19T07:31:40.831Z,44.46
2022-08-19T07:34:14.404Z,44.33
2022-08-19T07:36:43.431Z,44.22
2022-08-19T07:39:14.692Z,43.36
2022-08-19T07:41:42.015Z,42.74
2022-08-19T07:44:10.236Z,42.61
2022-08-19T07:46:40.721Z,42.07
2022-08-19T07:49:09.087Z,42.28
2022-08-19T07:51:37.242Z,42.50
2022-08-19T07:54:04.943Z,41.87
2022-08-19T07:56:31.738Z,41.69
2022-08-19T07:58:58.753Z,40.27
2022-08-19T08:01:28.916Z,40.47
2022-08-19T08:04:16.560Z,40.69
2022-08-19T08:07:02.643Z,40.72
2022-08-19T08:09:39.325Z,41.06
2022-08-19T08:12:34.734Z,40.83
2022-08-19T08:15:08.964Z,40.99
2022-08-19T08:17:49.443Z,41.12
2022-08-19T08:20:19.772Z,40.92
2022-08-19T08:23:07.111Z,40.73
2022-08-19T08:25:36.413Z,40.39
2022-08-19T08:28:04.316Z,40.30
2022-08-19T08:30:33.918Z,40.57
2022-08-19T08:33:02.713Z,41.01
2022-08-19T08:35:30.105Z,41.23
2022-08-19T08:37:57.722Z,41.41
2022-08-19T08:40:50.772Z,41.29
2022-08-19T08:43:38.684Z,40.91
2022-08-19T08:46:30.354Z,40.86
2022-08-19T08:49:26.729Z,40.08
2022-08-19T08:52:17.688Z,39.66
2022-08-19T08:54:48.985Z,38.35
2022-08-19T08:57:37.066Z,38.02
2022-08-19T09:00:15.563Z,37.65
2022-08-19T09:02:43.889Z,37.21
2022-08-19T09:05:16.606Z,37.30
2022-08-19T09:07:45.767Z,36.64
2022-08-19T09:10:30.041Z,36.89
2022-08-19T09:13:09.496Z,37.32
2022-08-19T09:15:45.415Z,37.75
2022-08-19T09:18:19.361Z,37.84
2022-08-19T09:20:48.464Z,37.90
2022-08-19T09:23:15.850Z,38.01
2022-08-19T09:25:42.934Z,37.44
2022-08-19T09:28:21.974Z,37.36
2022-08-19T09:30:49.868Z,37.40
2022-08-19T09:33:20.987Z,37.21
2022-08-19T09:35:53.188Z,37.42
2022-08-19T09:38:22.489Z,37.96
2022-08-19T09:40:50.956Z,38.08
2022-08-19T09:43:31.065Z,38.18
2022-08-19T09:46:02.283Z,37.71
2022-08-19T09:48:29.173Z,37.60
2022-08-19T09:50:56.402Z,36.52
2022-08-19T09:53:25.425Z,35.93
2022-08-19T09:55:53.103Z,32.90
2022-08-19T09:58:24.654Z,32.57
2022-08-19T10:00:54.840Z,31.80
2022-08-19T10:03:22.014Z,31.40
2022-08-19T10:05:55.145Z,31.92
2022-08-19T10:08:28.248Z,32.07
2022-08-19T10:10:56.138Z,31.83
2022-08-19T10:13:27.120Z,31.46
2022-08-19T10:15:56.884Z,29.75
2022-08-19T10:18:25.492Z,29.59
2022-08-19T10:20:54.621Z,28.69
2022-08-19T10:23:22.429Z,27.29
2022-08-19T10:25:50.729Z,26.17
2022-08-19T10:28:19.141Z,25.00
2022-08-19T10:30:47.485Z,24.83
2022-08-19T10:33:27.134Z,24.37
2022-08-19T10:36:12.300Z,24.08
2022-08-19T10:38:39.362Z,23.41
2022-08-19T10:41:19.674Z,21.78
2022-08-19T10:43:46.972Z,21.06
2022-08-19T10:46:16.645Z,20.12
2022-08-19T10:48:45.289Z,20.85
2022-08-19T10:51:31.558Z,20.43
2022-08-19T10:53:59.398Z,20.27
2022-08-19T10:56:45.752Z,19.52
2022-08-19T10:59:14.675Z,20.04
2022-08-19T11:01:43.928Z,19.89
2022-08-19T11:04:12.246Z,19.70
2022-08-19T11:06:39.508Z,19.43
2022-08-19T11:09:06.970Z,19.22
2022-08-19T11:11:40.526Z,19.31
2022-08-19T11:14:15.887Z,18.77
2022-08-19T11:16:43.682Z,18.26
2022-08-19T11:19:12.713Z,17.82
2022-08-19T11:21:42.892Z,18.20
2022-08-19T11:24:16.315Z,18.86
2022-08-19T11:26:45.190Z,19.17
2022-08-19T11:29:14.307Z,18.83
2022-08-19T11:31:43.571Z,19.17
2022-08-19T11:34:13.413Z,19.18
2022-08-19T11:36:43.555Z,19.48
2022-08-19T11:39:11.489Z,19.55
2022-08-19T11:41:38.453Z,19.40
2022-08-19T11:44:05.771Z,19.41
2022-08-19T11:46:32.758Z,18.85
2022-08-19T11:49:01.678Z,19.37
2022-08-19T11:51:29.170Z,19.87
2022-08-19T11:53:58.068Z,19.82
2022-08-19T11:56:26.598Z,20.79
2022-08-19T11:58:54.314Z,20.61
2022-08-19T12:01:24.396Z,20.74
2022-08-19T12:03:53.353Z,20.96
2022-08-19T12:06:26.640Z,21.21
2022-08-19T12:08:54.761Z,20.90
2022-08-19T12:11:21.814Z,21.42
2022-08-19T12:13:48.839Z,21.50
2022-08-19T12:16:21.214Z,21.55
2022-08-19T12:18:48.516Z,22.67
2022-08-19T12:21:17.057Z,22.73
2022-08-19T12:23:46.004Z,23.10
2022-08-19T12:26:13.329Z,22.98
2022-08-19T12:28:40.297Z,23.27
2022-08-19T12:31:07.176Z,22.71
2022-08-19T12:33:34.278Z,22.38
2022-08-19T12:36:04.639Z,22.80
2022-08-19T12:38:31.549Z,22.46
2022-08-19T12:41:00.257Z,22.76
2022-08-19T12:43:28.068Z,23.12
2022-08-19T12:45:54.907Z,23.00
2022-08-19T12:48:34.246Z,23.68
2022-08-19T12:51:07.807Z,23.71
2022-08-19T12:53:34.875Z,24.48
2022-08-19T12:56:07.452Z,24.93
2022-08-19T12:58:38.421Z,25.39
2022-08-19T13:01:11.697Z,26.07
2022-08-19T13:03:40.771Z,25.73
2022-08-19T13:06:09.194Z,25.50
2022-08-19T13:08:37.057Z,25.54
2022-08-19T13:11:13.531Z,25.46
2022-08-19T13:13:42.989Z,26.40
2022-08-19T13:16:11.996Z,26.81
2022-08-19T13:18:40.726Z,27.45
2022-08-19T13:21:10.274Z,27.98
2022-08-19T13:23:37.305Z,28.32
2022-08-19T13:26:07.781Z,28.80
2022-08-19T13:28:54.165Z,28.80
2022-08-19T13:31:42.421Z,29.03
2022-08-19T13:34:09.882Z,29.29
2022-08-19T13:36:37.821Z,29.61
2022-08-19T13:39:06.981Z,29.37
2022-08-19T13:41:34.780Z,29.86
2022-08-19T13:44:02.797Z,30.10
2022-08-19T13:46:30.213Z,30.70
2022-08-19T13:48:58.495Z,31.69
2022-08-19T13:51:25.475Z,32.00
2022-08-19T13:53:52.773Z,32.67
2022-08-19T13:56:25.401Z,32.86
2022-08-19T13:58:53.030Z,33.12
2022-08-19T14:01:25.251Z,34.14
2022-08-19T14:03:52.407Z,34.79
2022-08-19T14:06:22.314Z,34.30
2022-08-19T14:08:49.394Z,34.12
2022-08-19T14:11:16.948Z,34.29
2022-08-19T14:13:43.731Z,34.94
2022-08-19T14:16:13.362Z,35.06
2022-08-19T14:18:40.933Z,35.36
2022-08-19T14:21:08.898Z,35.29
2022-08-19T14:23:37.192Z,35.70
2022-08-19T14:26:14.442Z,35.48
2022-08-19T14:28:42.860Z,35.88
2022-08-19T14:31:14.062Z,35.65
2022-08-19T14:33:41.485Z,35.60
2022-08-19T14:36:08.470Z,35.36
2022-08-19T14:38:35.900Z,35.78
2022-08-19T14:41:11.666Z,35.93
2022-08-19T14:43:39.322Z,36.23
2022-08-19T14:46:06.707Z,36.18
2022-08-19T14:48:33.867Z,36.13
2022-08-19T14:51:01.462Z,36.31
2022-08-19T14:53:28.339Z,36.48
2022-08-19T14:55:55.169Z,36.62
2022-08-19T14:58:29.172Z,36.94
2022-08-19T15:00:59.769Z,36.71
2022-08-19T15:03:27.061Z,36.62
2022-08-19T15:05:54.923Z,36.41
2022-08-19T15:08:23.516Z,36.68
2022-08-19T15:10:50.409Z,37.05
2022-08-19T15:13:17.517Z,36.62
2022-08-19T15:15:44.318Z,36.36
2022-08-19T15:18:12.564Z,36.87
2022-08-19T15:20:40.042Z,36.57
2022-08-19T15:23:08.931Z,36.88
2022-08-19T15:25:35.803Z,36.86
2022-08-19T15:28:04.214Z,36.92
2022-08-19T15:30:31.356Z,37.18
2022-08-19T15:32:59.145Z,37.27
2022-08-19T15:35:26.937Z,37.47
2022-08-19T15:37:55.163Z,37.40
2022-08-19T15:40:23.935Z,37.37
2022-08-19T15:42:50.881Z,37.64
2022-08-19T15:45:19.374Z,37.85
2022-08-19T15:47:46.611Z,37.75
2022-08-19T15:50:18.410Z,37.94
2022-08-19T15:52:57.357Z,38.10
2022-08-19T15:55:33.649Z,38.28
2022-08-19T15:58:28.572Z,37.85
2022-08-19T16:01:26.995Z,37.98
2022-08-19T16:04:14.640Z,38.45
2022-08-19T16:07:03.475Z,37.94
2022-08-19T16:09:32.697Z,38.07
2022-08-19T16:12:02.738Z,38.61
2022-08-19T16:14:32.707Z,38.59
2022-08-19T16:17:00.005Z,38.30
2022-08-19T16:19:27.411Z,38.56
2022-08-19T16:21:56.439Z,38.66
2022-08-19T16:24:26.808Z,38.88
2022-08-19T16:26:54.547Z,39.00
2022-08-19T16:29:33.651Z,38.79
2022-08-19T16:32:06.283Z,38.61
2022-08-19T16:34:33.750Z,38.85
2022-08-19T16:37:00.890Z,39.27
2022-08-19T16:39:27.838Z,38.98
2022-08-19T16:41:54.732Z,38.76
2022-08-19T16:44:22.197Z,39.16
2022-08-19T16:46:57.393Z,38.60
2022-08-19T16:49:53.073Z,39.03
2022-08-19T16:52:18.025Z,39.25
2022-08-19T16:54:45.209Z,39.31
2022-08-19T16:57:12.655Z,39.16
2022-08-19T16:59:42.613Z,39.35
2022-08-19T17:02:18.033Z,39.45
2022-08-19T17:04:45.233Z,39.68
2022-08-19T17:07:24.707Z,39.72
2022-08-19T17:09:51.539Z,39.80
2022-08-19T17:12:18.932Z,39.62
2022-08-19T17:14:46.165Z,39.72
2022-08-19T17:17:13.109Z,39.75
2022-08-19T17:19:42.298Z,40.17
2022-08-19T17:22:11.510Z,39.78
2022-08-19T17:24:40.500Z,40.15
2022-08-19T17:27:07.773Z,40.05
2022-08-19T17:29:35.110Z,39.72
2022-08-19T17:32:02.418Z,39.96
2022-08-19T17:34:29.465Z,40.22
2022-08-19T17:36:59.421Z,40.06
2022-08-19T17:39:26.323Z,39.88
2022-08-19T17:41:53.401Z,39.37
2022-08-19T17:44:20.312Z,39.05
2022-08-19T17:46:47.144Z,38.99
2022-08-19T17:49:14.487Z,38.40
2022-08-19T17:51:46.891Z,37.60
2022-08-19T17:54:18.661Z,37.33
2022-08-19T17:56:46.331Z,37.70
2022-08-19T17:59:14.482Z,37.18
2022-08-19T18:01:52.029Z,36.94
2022-08-19T18:04:22.616Z,36.75
2022-08-19T18:06:53.248Z,36.88
2022-08-19T18:09:25.587Z,36.55
2022-08-19T18:11:53.565Z,36.82
2022-08-19T18:14:32.793Z,36.80
2022-08-19T18:17:10.013Z,36.13
2022-08-19T18:19:41.000Z,36.28
2022-08-19T18:22:20.596Z,36.21
2022-08-19T18:24:47.981Z,35.82
2022-08-19T18:27:15.001Z,36.16
2022-08-19T18:29:42.082Z,36.06
2022-08-19T18:32:14.989Z,35.92
2022-08-19T18:34:43.503Z,35.24
2022-08-19T18:37:11.596Z,35.17
2022-08-19T18:39:57.159Z,35.83
2022-08-19T18:42:42.609Z,35.65
2022-08-19T18:45:29.588Z,35.36
2022-08-19T18:48:26.593Z,34.94
2022-08-19T18:50:56.586Z,35.03
2022-08-19T18:53:23.972Z,34.96
2022-08-19T18:55:53.964Z,35.63
2022-08-19T18:58:26.706Z,35.20
2022-08-19T19:00:56.919Z,35.52
2022-08-19T19:03:25.477Z,35.55
2022-08-19T19:05:52.910Z,36.32
2022-08-19T19:08:19.998Z,36.28
2022-08-19T19:10:53.502Z,36.52
2022-08-19T19:13:20.378Z,36.33
2022-08-19T19:15:47.253Z,36.66
2022-08-19T19:18:14.075Z,36.93
2022-08-19T19:20:41.604Z,36.55
2022-08-19T19:23:08.566Z,36.62
2022-08-19T19:25:50.659Z,36.39
2022-08-19T19:28:29.156Z,37.07
2022-08-19T19:31:00.364Z,36.33
2022-08-19T19:33:28.363Z,36.12
2022-08-19T19:35:55.521Z,36.04
2022-08-19T19:38:22.351Z,35.63
2022-08-19T19:40:49.170Z,35.91
2022-08-19T19:43:17.233Z,35.70
2022-08-19T19:45:44.426Z,35.82
2022-08-19T19:48:13.545Z,36.34
2022-08-19T19:50:40.650Z,36.04
2022-08-19T19:53:07.524Z,35.94
2022-08-19T19:55:34.362Z,35.62
2022-08-19T19:58:01.176Z,35.84
2022-08-19T20:00:28.065Z,35.59
2022-08-19T20:02:56.012Z,35.70
2022-08-19T20:05:23.346Z,35.41
2022-08-19T20:08:10.806Z,35.64
2022-08-19T20:10:39.392Z,35.71
2022-08-19T20:13:07.865Z,35.44
2022-08-19T20:15:39.111Z,35.78
2022-08-19T20:18:08.693Z,35.51
2022-08-19T20:20:36.329Z,35.85
2022-08-19T20:23:03.183Z,36.24
2022-08-19T20:25:32.251Z,35.51
2022-08-19T20:28:01.253Z,35.34
2022-08-19T20:30:28.777Z,36.14
2022-08-19T20:32:59.004Z,35.67
2022-08-19T20:35:26.759Z,36.01
2022-08-19T20:37:57.952Z,35.72
2022-08-19T20:40:29.454Z,35.68
2022-08-19T20:42:56.814Z,36.28
2022-08-19T20:45:33.554Z,35.61
2022-08-19T20:48:05.749Z,35.77
2022-08-19T20:50:33.052Z,35.59
2022-08-19T20:53:00.850Z,35.59
2022-08-19T20:55:30.568Z,35.60
2022-08-19T20:57:58.716Z,35.98
2022-08-19T21:00:25.911Z,35.52
2022-08-19T21:02:52.854Z,35.73
2022-08-19T21:05:19.692Z,35.46
2022-08-19T21:07:46.612Z,35.76
2022-08-19T21:10:13.518Z,35.39
2022-08-19T21:12:42.068Z,35.51
2022-08-19T21:15:09.350Z,35.88
2022-08-19T21:17:36.192Z,35.47
2022-08-19T21:20:06.031Z,35.19
2022-08-19T21:22:34.005Z,35.82
2022-08-19T21:25:01.547Z,35.18
2022-08-19T21:27:28.463Z,35.35
2022-08-19T21:29:55.458Z,35.56
2022-08-19T21:32:23.681Z,35.65
2022-08-19T21:34:51.025Z,35.68
2022-08-19T21:37:25.300Z,35.74
2022-08-19T21:39:53.691Z,35.81
2022-08-19T21:42:21.326Z,35.81
2022-08-19T21:44:48.407Z,36.05
2022-08-19T21:47:15.624Z,36.51
2022-08-19T21:49:42.470Z,36.37
2022-08-19T21:52:09.408Z,36.44
2022-08-19T21:54:38.250Z,36.28
2022-08-19T21:57:10.205Z,37.08
2022-08-19T21:59:43.706Z,36.81
2022-08-19T22:02:21.505Z,36.82
2022-08-19T22:04:50.778Z,37.53
2022-08-19T22:07:18.505Z,37.52
2022-08-19T22:09:46.696Z,37.18
2022-08-19T22:12:25.827Z,37.72
2022-08-19T22:14:54.074Z,37.59
2022-08-19T22:17:22.769Z,37.85
2022-08-19T22:19:52.538Z,37.95
2022-08-19T22:22:25.867Z,38.33
2022-08-19T22:24:54.178Z,38.20
2022-08-19T22:27:21.389Z,38.40
2022-08-19T22:29:52.418Z,38.18
2022-08-19T22:32:28.385Z,38.49
2022-08-19T22:34:58.710Z,38.99
2022-08-19T22:37:27.581Z,39.52
2022-08-19T22:39:54.802Z,39.77
2022-08-19T22:42:22.305Z,39.72
2022-08-19T22:44:49.491Z,40.14
2022-08-19T22:47:17.038Z,39.81
2022-08-19T22:49:44.966Z,39.58
2022-08-19T22:52:17.688Z,39.68
2022-08-19T22:54:52.844Z,39.60
2022-08-19T22:57:21.392Z,40.04
2022-08-19T22:59:49.850Z,39.99
2022-08-19T23:02:21.577Z,40.07
2022-08-19T23:04:49.222Z,40.21
2022-08-19T23:07:17.784Z,40.13
2022-08-19T23:09:50.777Z,40.73
2022-08-19T23:12:27.141Z,40.59
2022-08-19T23:14:54.308Z,40.77
2022-08-19T23:17:21.265Z,40.52
2022-08-19T23:19:48.093Z,40.80
2022-08-19T23:22:19.152Z,40.84
2022-08-19T23:24:56.120Z,41.29
2022-08-19T23:27:41.578Z,41.49
2022-08-19T23:30:27.692Z,41.53
2022-08-19T23:33:01.027Z,41.78
2022-08-19T23:35:34.291Z,42.61
2022-08-19T23:38:06.844Z,42.27
2022-08-19T23:40:36.667Z,42.65
2022-08-19T23:43:07.998Z,43.14
2022-08-19T23:45:41.255Z,43.40
2022-08-19T23:48:18.699Z,43.42
2022-08-19T23:50:46.821Z,44.27
2022-08-19T23:53:15.833Z,44.09
2022-08-19T23:55:45.443Z,44.71
2022-08-19T23:58:14.755Z,44.58
